Time;durP1;ratioP1;P1;durP2;ratioP2;P2;SDS_P1;SDS_P2;PMS_P1;PMS_P2;Temp;Humidity;BMP_temperature;BMP_pressure;BME280_temperature;BME280_humidity;BME280_pressure;Samples;Min_cycle;Max_cycle;Signal;HPM_P1;HPM_P2
2023/04/19 00:00:46;;;;;;;;;;;12.80;80.30;;;;;;5046926;28;19929;-79
2023/04/19 00:03:13;;;;;;;;;;;12.80;80.40;;;;;;5050589;28;19939;-79
2023/04/19 00:05:40;;;;;;;;;;;12.80;80.50;;;;;;5044416;28;19932;-78
2023/04/19 00:08:06;;;;;;;;;;;12.70;80.50;;;;;;5039171;28;19933;-78
2023/04/19 00:10:34;;;;;;;;;;;12.70;80.40;;;;;;5045895;28;19956;-80
2023/04/19 00:13:02;;;;;;;;;;;12.70;80.40;;;;;;5038350;28;19998;-81
2023/04/19 00:15:29;;;;;;;;;;;12.70;80.50;;;;;;5040539;28;19941;-79
2023/04/19 00:17:55;;;;;;;;;;;12.60;80.50;;;;;;5047381;28;19932;-79
2023/04/19 00:20:22;;;;;;;;;;;12.60;80.60;;;;;;5042971;28;20051;-78
2023/04/19 00:22:49;;;;;;;;;;;12.60;80.70;;;;;;5041657;28;19928;-79
2023/04/19 00:25:15;;;;;;;;;;;12.60;80.70;;;;;;5043409;28;19929;-79
2023/04/19 00:27:42;;;;;;;;;;;12.60;80.60;;;;;;5042931;28;19936;-81
2023/04/19 00:30:10;;;;;;;;;;;12.60;80.60;;;;;;5047122;28;19929;-80
2023/04/19 00:32:37;;;;;;;;;;;12.60;80.70;;;;;;5048282;28;19936;-79
2023/04/19 00:35:03;;;;;;;;;;;12.60;80.70;;;;;;5045665;28;19936;-80
2023/04/19 00:37:30;;;;;;;;;;;12.50;80.60;;;;;;5045797;28;19928;-79
2023/04/19 00:39:56;;;;;;;;;;;12.50;80.70;;;;;;5046776;28;19940;-80
2023/04/19 00:42:23;;;;;;;;;;;12.50;80.70;;;;;;5044413;28;19928;-80
2023/04/19 00:44:49;;;;;;;;;;;12.50;80.70;;;;;;5051976;28;19925;-81
2023/04/19 00:47:17;;;;;;;;;;;12.50;80.80;;;;;;5040385;28;19929;-78
2023/04/19 00:49:44;;;;;;;;;;;12.50;80.90;;;;;;5040814;28;19936;-78
2023/04/19 00:52:11;;;;;;;;;;;12.50;80.90;;;;;;5043506;28;20479;-79
2023/04/19 00:54:39;;;;;;;;;;;12.40;80.90;;;;;;5040917;28;19933;-79
2023/04/19 00:57:06;;;;;;;;;;;12.40;81.00;;;;;;5039533;28;20645;-78
2023/04/19 00:59:33;;;;;;;;;;;12.40;81.00;;;;;;5048135;28;20027;-79
2023/04/19 01:02:00;;;;;;;;;;;12.40;81.10;;;;;;5044462;28;19935;-80
2023/04/19 01:04:27;;;;;;;;;;;12.40;81.20;;;;;;5048399;28;20448;-80
2023/04/19 01:06:54;;;;;;;;;;;12.40;81.30;;;;;;5047231;28;19929;-79
2023/04/19 01:09:21;;;;;;;;;;;12.40;81.50;;;;;;5043819;28;20023;-80
2023/04/19 01:11:47;;;;;;;;;;;12.40;81.50;;;;;;5046800;28;19936;-79
2023/04/19 01:14:14;;;;;;;;;;;12.40;81.60;;;;;;5041526;28;19929;-79
2023/04/19 01:16:40;;;;;;;;;;;12.40;81.70;;;;;;5039849;28;20409;-79
2023/04/19 01:19:07;;;;;;;;;;;12.30;81.70;;;;;;5047938;28;19940;-79
2023/04/19 01:21:38;;;;;;;;;;;12.30;81.70;;;;;;5048917;28;19929;-79
2023/04/19 01:24:06;;;;;;;;;;;12.30;81.80;;;;;;5036537;28;20177;-80
2023/04/19 01:26:33;;;;;;;;;;;12.30;81.80;;;;;;5045101;28;19933;-79
2023/04/19 01:29:00;;;;;;;;;;;12.30;81.80;;;;;;5041238;28;20283;-79
2023/04/19 01:31:26;;;;;;;;;;;12.30;81.90;;;;;;5037411;28;19968;-79
2023/04/19 01:33:53;;;;;;;;;;;12.30;81.90;;;;;;5045413;28;19928;-79
2023/04/19 01:36:19;;;;;;;;;;;12.20;81.90;;;;;;5040516;28;19929;-80
2023/04/19 01:38:46;;;;;;;;;;;12.30;82.00;;;;;;5037961;28;19935;-79
2023/04/19 01:41:14;;;;;;;;;;;12.20;82.00;;;;;;5037989;28;19940;-80
2023/04/19 01:43:41;;;;;;;;;;;12.20;82.00;;;;;;5040813;28;19932;-79
2023/04/19 01:46:07;;;;;;;;;;;12.20;82.10;;;;;;5038437;28;19937;-79
2023/04/19 01:48:34;;;;;;;;;;;12.20;82.10;;;;;;5041620;28;19955;-80
2023/04/19 01:51:00;;;;;;;;;;;12.20;82.20;;;;;;5040704;28;20410;-78
2023/04/19 01:53:27;;;;;;;;;;;12.20;82.20;;;;;;5038735;28;19936;-78
2023/04/19 01:55:53;;;;;;;;;;;12.20;82.20;;;;;;5038896;28;19936;-79
2023/04/19 01:58:21;;;;;;;;;;;12.20;82.30;;;;;;5037905;28;19929;-78
2023/04/19 02:00:48;;;;;;;;;;;12.20;82.40;;;;;;5038371;28;19925;-77
2023/04/19 02:03:14;;;;;;;;;;;12.10;82.30;;;;;;5039958;28;19940;-78
2023/04/19 02:05:41;;;;;;;;;;;12.10;82.40;;;;;;5034238;28;19971;-78
2023/04/19 02:08:07;;;;;;;;;;;12.10;82.50;;;;;;5045259;28;20562;-78
2023/04/19 02:10:34;;;;;;;;;;;12.10;82.50;;;;;;5042994;28;19929;-77
2023/04/19 02:13:01;;;;;;;;;;;12.10;82.50;;;;;;5036780;28;20442;-79
2023/04/19 02:15:29;;;;;;;;;;;12.10;82.60;;;;;;5040317;28;19928;-79
2023/04/19 02:17:55;;;;;;;;;;;12.10;82.60;;;;;;5037633;28;19929;-79
2023/04/19 02:20:23;;;;;;;;;;;12.10;82.70;;;;;;5036912;28;19935;-79
2023/04/19 02:22:49;;;;;;;;;;;12.00;82.60;;;;;;5036065;28;20055;-79
2023/04/19 02:25:18;;;;;;;;;;;12.00;82.70;;;;;;5040540;28;20287;-78
2023/04/19 02:27:44;;;;;;;;;;;12.00;82.80;;;;;;5046204;28;19928;-79
2023/04/19 02:30:11;;;;;;;;;;;12.00;82.80;;;;;;5044546;28;19935;-81
2023/04/19 02:32:39;;;;;;;;;;;12.00;82.80;;;;;;5046909;28;20704;-80
2023/04/19 02:35:06;;;;;;;;;;;12.00;82.80;;;;;;5043355;28;19956;-79
2023/04/19 02:37:32;;;;;;;;;;;12.00;82.80;;;;;;5048162;28;20504;-80
2023/04/19 02:39:59;;;;;;;;;;;12.00;82.90;;;;;;5054797;28;20512;-80
2023/04/19 02:42:25;;;;;;;;;;;11.90;82.90;;;;;;5048020;28;20398;-80
2023/04/19 02:44:52;;;;;;;;;;;11.90;82.90;;;;;;5050181;28;20000;-78
2023/04/19 02:47:19;;;;;;;;;;;11.90;82.90;;;;;;5047983;28;19929;-81
2023/04/19 02:49:47;;;;;;;;;;;11.90;83.00;;;;;;5049635;28;19929;-79
2023/04/19 02:52:14;;;;;;;;;;;11.90;83.00;;;;;;5049515;28;19929;-79
2023/04/19 02:54:40;;;;;;;;;;;11.90;83.10;;;;;;5045743;28;19929;-79
2023/04/19 02:57:07;;;;;;;;;;;11.90;83.10;;;;;;5048342;28;19928;-79
2023/04/19 02:59:33;;;;;;;;;;;11.90;83.10;;;;;;5049890;28;19935;-79
2023/04/19 03:02:00;;;;;;;;;;;11.90;83.20;;;;;;5059692;28;20003;-79
2023/04/19 03:04:27;;;;;;;;;;;11.90;83.20;;;;;;5047528;28;19933;-79
2023/04/19 03:06:55;;;;;;;;;;;11.90;83.20;;;;;;5048715;28;19928;-81
2023/04/19 03:09:22;;;;;;;;;;;11.90;83.30;;;;;;5047769;28;19933;-80
2023/04/19 03:11:48;;;;;;;;;;;11.80;83.20;;;;;;5047346;28;19932;-80
2023/04/19 03:14:15;;;;;;;;;;;11.80;83.20;;;;;;5051614;28;19936;-80
2023/04/19 03:16:41;;;;;;;;;;;11.80;83.30;;;;;;5049783;28;19944;-79
2023/04/19 03:19:08;;;;;;;;;;;11.80;83.30;;;;;;5054437;28;19979;-80
2023/04/19 03:21:34;;;;;;;;;;;11.80;83.30;;;;;;5052945;28;19936;-78
2023/04/19 03:24:02;;;;;;;;;;;11.80;83.30;;;;;;5046978;28;19929;-78
2023/04/19 03:26:29;;;;;;;;;;;11.70;83.10;;;;;;5052064;28;19929;-80
2023/04/19 03:28:56;;;;;;;;;;;11.60;83.60;;;;;;5048610;28;19933;-80
2023/04/19 03:31:22;;;;;;;;;;;11.60;83.80;;;;;;5049751;28;19928;-79
2023/04/19 03:33:49;;;;;;;;;;;11.60;83.90;;;;;;5051904;28;20303;-78
2023/04/19 03:36:16;;;;;;;;;;;11.50;84.00;;;;;;5047446;28;19929;-80
2023/04/19 03:38:43;;;;;;;;;;;11.50;84.10;;;;;;5050864;28;19929;-80
2023/04/19 03:41:19;;;;;;;;;;;11.50;84.20;;;;;;5045689;28;19944;-81
2023/04/19 03:43:45;;;;;;;;;;;11.50;84.20;;;;;;5047491;28;20469;-80
2023/04/19 03:46:12;;;;;;;;;;;11.50;84.30;;;;;;5050874;28;20401;-79
2023/04/19 03:48:38;;;;;;;;;;;11.50;84.40;;;;;;5050760;28;20213;-79
2023/04/19 03:51:05;;;;;;;;;;;11.50;84.40;;;;;;5047418;28;19936;-80
2023/04/19 03:53:32;;;;;;;;;;;11.40;84.40;;;;;;5048048;28;19939;-80
2023/04/19 03:55:58;;;;;;;;;;;11.50;84.50;;;;;;5048674;28;19940;-80
2023/04/19 03:58:26;;;;;;;;;;;11.40;84.50;;;;;;5048753;28;19939;-81
2023/04/19 04:00:53;;;;;;;;;;;11.40;84.60;;;;;;5056856;28;19963;-79
2023/04/19 04:03:19;;;;;;;;;;;11.40;84.60;;;;;;5051617;28;19936;-82
2023/04/19 04:05:46;;;;;;;;;;;11.40;84.70;;;;;;5044471;28;19929;-81
2023/04/19 04:08:13;;;;;;;;;;;11.40;84.80;;;;;;5058207;28;20635;-80
2023/04/19 04:10:40;;;;;;;;;;;11.40;84.80;;;;;;5049604;28;19986;-79
2023/04/19 04:13:06;;;;;;;;;;;11.40;84.80;;;;;;5048165;28;19929;-78
2023/04/19 04:15:34;;;;;;;;;;;11.40;84.90;;;;;;5049030;28;20138;-80
2023/04/19 04:18:01;;;;;;;;;;;11.40;84.90;;;;;;5049981;28;20607;-80
2023/04/19 04:20:27;;;;;;;;;;;11.30;84.80;;;;;;5046597;28;19925;-81
2023/04/19 04:22:54;;;;;;;;;;;11.30;84.80;;;;;;5050345;28;19929;-79
2023/04/19 04:25:21;;;;;;;;;;;11.30;84.90;;;;;;5048477;28;19933;-81
2023/04/19 04:27:50;;;;;;;;;;;11.40;85.00;;;;;;5046622;28;19933;-79
2023/04/19 04:30:17;;;;;;;;;;;11.30;84.90;;;;;;5047954;28;19968;-79
2023/04/19 04:32:45;;;;;;;;;;;11.30;85.00;;;;;;5053105;28;19932;-79
2023/04/19 04:35:12;;;;;;;;;;;11.30;85.00;;;;;;5046422;28;19939;-81
2023/04/19 04:37:39;;;;;;;;;;;11.30;85.00;;;;;;5044749;28;19925;-79
2023/04/19 04:40:06;;;;;;;;;;;11.30;85.10;;;;;;5048723;28;19929;-79
2023/04/19 04:42:33;;;;;;;;;;;11.30;85.20;;;;;;5045860;28;20066;-79
2023/04/19 04:45:00;;;;;;;;;;;11.30;85.20;;;;;;5047305;28;19928;-82
2023/04/19 04:47:30;;;;;;;;;;;11.20;85.20;;;;;;5047402;28;20019;-80
2023/04/19 04:49:58;;;;;;;;;;;11.20;85.30;;;;;;5052066;28;19933;-80
2023/04/19 04:52:24;;;;;;;;;;;11.20;85.30;;;;;;5046497;28;19936;-79
2023/04/19 04:54:51;;;;;;;;;;;11.20;85.30;;;;;;5047635;28;19963;-80
2023/04/19 04:57:18;;;;;;;;;;;11.20;85.30;;;;;;5045687;28;19975;-80
2023/04/19 04:59:45;;;;;;;;;;;11.10;85.30;;;;;;5051814;28;19971;-80
2023/04/19 05:02:11;;;;;;;;;;;11.10;85.30;;;;;;5045859;28;19924;-82
2023/04/19 05:04:38;;;;;;;;;;;11.20;85.50;;;;;;5046145;28;19932;-80
2023/04/19 05:07:06;;;;;;;;;;;11.10;85.40;;;;;;5041201;28;20138;-79
2023/04/19 05:09:32;;;;;;;;;;;11.10;85.40;;;;;;5046488;28;20410;-79
2023/04/19 05:11:59;;;;;;;;;;;11.10;85.50;;;;;;5047436;28;20559;-80
2023/04/19 05:14:25;;;;;;;;;;;11.10;85.50;;;;;;5047535;28;19928;-80
2023/04/19 05:16:52;;;;;;;;;;;11.10;85.50;;;;;;5050681;28;19941;-80
2023/04/19 05:19:18;;;;;;;;;;;11.00;85.50;;;;;;5048256;28;19928;-80
2023/04/19 05:21:45;;;;;;;;;;;11.00;85.50;;;;;;5043203;28;20061;-79
2023/04/19 05:24:13;;;;;;;;;;;11.00;85.60;;;;;;5041894;28;20310;-80
2023/04/19 05:26:39;;;;;;;;;;;11.00;85.60;;;;;;5045610;28;19928;-78
2023/04/19 05:29:06;;;;;;;;;;;11.00;85.60;;;;;;5049693;28;19932;-79
2023/04/19 05:31:32;;;;;;;;;;;11.00;85.60;;;;;;5042802;28;19932;-78
2023/04/19 05:33:59;;;;;;;;;;;11.00;85.60;;;;;;5041157;28;20402;-80
2023/04/19 05:36:25;;;;;;;;;;;10.90;85.60;;;;;;5043443;28;19947;-80
2023/04/19 05:38:52;;;;;;;;;;;10.90;85.60;;;;;;5048249;28;19979;-80
2023/04/19 05:41:20;;;;;;;;;;;10.90;85.60;;;;;;5044737;28;19943;-72
2023/04/19 05:43:46;;;;;;;;;;;10.90;85.70;;;;;;5035803;28;19932;-71
2023/04/19 05:46:13;;;;;;;;;;;10.90;85.60;;;;;;5047394;28;19928;-71
2023/04/19 05:48:39;;;;;;;;;;;10.90;85.60;;;;;;5041981;28;20394;-71
2023/04/19 05:51:06;;;;;;;;;;;10.90;85.60;;;;;;5041158;28;20390;-72
2023/04/19 05:53:33;;;;;;;;;;;10.90;85.60;;;;;;5040117;28;19929;-72
2023/04/19 05:55:59;;;;;;;;;;;10.90;85.70;;;;;;5040232;28;19959;-71
2023/04/19 05:58:27;;;;;;;;;;;10.90;85.70;;;;;;5034326;28;20433;-72
2023/04/19 06:00:54;;;;;;;;;;;10.90;85.70;;;;;;5040948;28;19938;-72
2023/04/19 06:03:20;;;;;;;;;;;10.90;85.70;;;;;;5038816;28;19940;-72
2023/04/19 06:05:47;;;;;;;;;;;10.90;85.70;;;;;;5035073;28;20062;-71
2023/04/19 06:08:15;;;;;;;;;;;10.90;85.70;;;;;;5037933;28;20835;-72
2023/04/19 06:10:42;;;;;;;;;;;10.90;85.70;;;;;;5047627;28;19935;-72
2023/04/19 06:13:09;;;;;;;;;;;10.90;85.80;;;;;;5051503;28;19928;-72
2023/04/19 06:15:38;;;;;;;;;;;10.80;85.70;;;;;;5043553;28;19932;-72
2023/04/19 06:18:08;;;;;;;;;;;10.90;85.70;;;;;;5043483;28;19936;-79
2023/04/19 06:20:35;;;;;;;;;;;10.90;85.70;;;;;;5038288;28;19983;-79
2023/04/19 06:23:02;;;;;;;;;;;10.90;85.80;;;;;;5038243;28;19937;-80
2023/04/19 06:25:28;;;;;;;;;;;10.80;85.70;;;;;;5038712;28;19944;-81
2023/04/19 06:27:55;;;;;;;;;;;10.80;85.80;;;;;;5034734;28;19933;-78
2023/04/19 06:30:21;;;;;;;;;;;10.80;85.80;;;;;;5041153;28;19948;-77
2023/04/19 06:32:49;;;;;;;;;;;10.80;85.90;;;;;;5045447;28;19951;-80
2023/04/19 06:35:16;;;;;;;;;;;10.80;85.90;;;;;;5037853;28;19932;-79
2023/04/19 06:37:42;;;;;;;;;;;10.80;85.90;;;;;;5047417;28;20407;-78
2023/04/19 06:40:10;;;;;;;;;;;10.80;86.00;;;;;;5046390;28;19961;-78
2023/04/19 06:42:37;;;;;;;;;;;10.80;86.00;;;;;;5037669;28;20018;-80
2023/04/19 06:45:04;;;;;;;;;;;10.80;86.00;;;;;;5041020;28;20352;-79
2023/04/19 06:47:30;;;;;;;;;;;10.80;86.00;;;;;;5041376;28;19929;-78
2023/04/19 06:49:58;;;;;;;;;;;10.80;86.00;;;;;;5047711;28;19933;-81
2023/04/19 06:52:25;;;;;;;;;;;10.80;86.10;;;;;;5039383;28;19928;-78
2023/04/19 06:54:51;;;;;;;;;;;10.80;86.20;;;;;;5038811;28;19936;-78
2023/04/19 06:57:18;;;;;;;;;;;10.80;86.30;;;;;;5038228;28;19929;-78
2023/04/19 06:59:45;;;;;;;;;;;10.90;86.50;;;;;;5046049;28;19928;-80
2023/04/19 07:02:11;;;;;;;;;;;10.80;86.40;;;;;;5042961;28;19940;-79
2023/04/19 07:04:38;;;;;;;;;;;10.90;86.50;;;;;;5049052;28;19965;-79
2023/04/19 07:07:06;;;;;;;;;;;10.90;87.20;;;;;;5042035;28;19929;-78
2023/04/19 07:09:32;;;;;;;;;;;10.90;86.50;;;;;;5045100;28;19929;-78
2023/04/19 07:12:00;;;;;;;;;;;10.90;86.60;;;;;;5042096;28;19929;-80
2023/04/19 07:14:27;;;;;;;;;;;10.90;86.60;;;;;;5048186;28;19939;-79
2023/04/19 07:16:53;;;;;;;;;;;10.90;86.60;;;;;;5050610;28;19932;-77
2023/04/19 07:19:21;;;;;;;;;;;11.00;86.70;;;;;;5040982;28;19935;-75
2023/04/19 07:21:48;;;;;;;;;;;10.90;86.60;;;;;;5032399;28;19928;-78
2023/04/19 07:24:16;;;;;;;;;;;10.90;86.70;;;;;;5042573;28;19994;-78
2023/04/19 07:26:42;;;;;;;;;;;11.00;87.50;;;;;;5033527;28;19933;-78
2023/04/19 07:29:09;;;;;;;;;;;11.00;86.80;;;;;;5036660;28;19937;-79
2023/04/19 07:31:36;;;;;;;;;;;11.00;86.70;;;;;;5034467;28;20053;-78
2023/04/19 07:34:02;;;;;;;;;;;11.00;86.70;;;;;;5026067;28;19959;-77
2023/04/19 07:36:30;;;;;;;;;;;11.10;86.90;;;;;;5035068;28;20369;-77
2023/04/19 07:38:57;;;;;;;;;;;11.00;86.80;;;;;;5030550;28;20027;-79
2023/04/19 07:41:25;;;;;;;;;;;11.10;86.80;;;;;;5030093;28;19933;-78
2023/04/19 07:43:51;;;;;;;;;;;11.10;86.90;;;;;;5039150;28;19939;-76
2023/04/19 07:46:18;;;;;;;;;;;11.10;86.80;;;;;;5037830;28;19932;-78
2023/04/19 07:48:45;;;;;;;;;;;11.10;86.70;;;;;;5039251;28;19929;-77
2023/04/19 07:51:12;;;;;;;;;;;11.20;86.70;;;;;;5040561;28;20615;-70
2023/04/19 07:53:38;;;;;;;;;;;11.20;86.80;;;;;;5038789;28;19932;-70
2023/04/19 07:56:05;;;;;;;;;;;11.20;86.80;;;;;;5045271;28;19975;-70
2023/04/19 07:58:33;;;;;;;;;;;11.20;86.80;;;;;;5039087;28;21807;-70
2023/04/19 08:01:01;;;;;;;;;;;11.30;86.80;;;;;;5049897;28;20492;-69
2023/04/19 08:03:27;;;;;;;;;;;11.30;86.70;;;;;;5042830;28;19964;-70
2023/04/19 08:05:54;;;;;;;;;;;11.30;86.70;;;;;;5041934;28;19998;-69
2023/04/19 08:08:21;;;;;;;;;;;11.30;86.70;;;;;;5037099;28;19929;-70
2023/04/19 08:10:47;;;;;;;;;;;11.30;86.70;;;;;;5047850;28;19929;-70
2023/04/19 08:13:14;;;;;;;;;;;11.30;86.70;;;;;;5043153;28;19932;-70
2023/04/19 08:15:41;;;;;;;;;;;11.40;86.80;;;;;;5044239;28;19932;-70
2023/04/19 08:18:08;;;;;;;;;;;11.40;86.80;;;;;;5041634;28;20708;-70
2023/04/19 08:20:35;;;;;;;;;;;11.40;86.80;;;;;;5040469;28;19936;-70
2023/04/19 08:23:02;;;;;;;;;;;11.40;86.70;;;;;;5041370;28;19928;-70
2023/04/19 08:25:28;;;;;;;;;;;11.40;86.70;;;;;;5039068;28;20516;-70
2023/04/19 08:27:56;;;;;;;;;;;11.40;86.60;;;;;;5041353;28;19936;-70
2023/04/19 08:30:23;;;;;;;;;;;11.50;86.70;;;;;;5043204;28;20486;-70
2023/04/19 08:32:50;;;;;;;;;;;11.50;86.60;;;;;;5045938;28;20751;-70
2023/04/19 08:35:17;;;;;;;;;;;11.50;86.40;;;;;;5044041;28;20019;-70
2023/04/19 08:37:43;;;;;;;;;;;11.50;86.30;;;;;;5047028;28;19931;-71
2023/04/19 08:40:10;;;;;;;;;;;11.60;86.30;;;;;;5045263;28;19924;-70
2023/04/19 08:42:37;;;;;;;;;;;11.60;86.20;;;;;;5039658;28;19933;-70
2023/04/19 08:45:05;;;;;;;;;;;11.60;86.10;;;;;;5041415;28;19932;-70
2023/04/19 08:47:32;;;;;;;;;;;11.60;86.10;;;;;;5038790;28;19924;-69
2023/04/19 08:50:01;;;;;;;;;;;11.70;86.10;;;;;;5042739;28;20598;-71
2023/04/19 08:52:28;;;;;;;;;;;11.60;86.00;;;;;;5040730;28;19968;-70
2023/04/19 08:54:55;;;;;;;;;;;11.70;86.00;;;;;;5047376;28;19932;-70
2023/04/19 08:57:21;;;;;;;;;;;11.70;85.90;;;;;;5043402;28;19925;-70
2023/04/19 08:59:54;;;;;;;;;;;11.70;86.00;;;;;;5043434;28;19932;-70
2023/04/19 09:02:21;;;;;;;;;;;11.60;85.90;;;;;;5038588;28;20402;-71
2023/04/19 09:04:47;;;;;;;;;;;11.70;85.90;;;;;;5043136;28;20681;-70
2023/04/19 09:07:24;;;;;;;;;;;11.70;86.20;;;;;;5045870;28;19933;-71
2023/04/19 09:10:04;;;;;;;;;;;11.70;86.30;;;;;;5043947;28;20020;-70
2023/04/19 09:12:31;;;;;;;;;;;11.60;86.40;;;;;;5036589;28;20474;-70
2023/04/19 09:14:57;;;;;;;;;;;11.60;86.30;;;;;;5047027;28;19933;-70
2023/04/19 09:17:24;;;;;;;;;;;11.70;86.50;;;;;;5039200;28;19929;-70
2023/04/19 09:19:51;;;;;;;;;;;11.70;86.50;;;;;;5044274;28;19935;-69
2023/04/19 09:22:17;;;;;;;;;;;11.70;86.60;;;;;;5042448;28;19936;-70
2023/04/19 09:24:45;;;;;;;;;;;11.70;86.50;;;;;;5044228;28;19928;-70
2023/04/19 09:27:12;;;;;;;;;;;11.70;86.60;;;;;;5033731;28;20398;-71
2023/04/19 09:29:38;;;;;;;;;;;11.70;86.60;;;;;;5038729;28;19928;-70
2023/04/19 09:32:05;;;;;;;;;;;11.80;86.70;;;;;;5045035;28;19929;-69
2023/04/19 09:34:32;;;;;;;;;;;11.80;86.70;;;;;;5040609;28;19933;-70
2023/04/19 09:37:11;;;;;;;;;;;11.80;86.60;;;;;;5039139;28;19935;-70
2023/04/19 09:39:37;;;;;;;;;;;11.90;86.50;;;;;;5039991;28;19933;-70
2023/04/19 09:42:05;;;;;;;;;;;11.90;86.40;;;;;;5041597;28;19935;-70
2023/04/19 09:44:34;;;;;;;;;;;11.90;86.30;;;;;;5037830;28;19932;-71
2023/04/19 09:47:00;;;;;;;;;;;11.90;86.10;;;;;;5035059;28;20432;-70
2023/04/19 09:49:27;;;;;;;;;;;11.90;85.90;;;;;;5047110;28;19937;-70
2023/04/19 09:51:54;;;;;;;;;;;12.00;85.80;;;;;;5040585;28;19951;-70
2023/04/19 09:54:21;;;;;;;;;;;12.00;85.70;;;;;;5043729;28;20778;-71
2023/04/19 09:56:48;;;;;;;;;;;12.00;85.60;;;;;;5042837;28;19983;-70
2023/04/19 09:59:16;;;;;;;;;;;12.00;85.50;;;;;;5036759;28;19936;-70
2023/04/19 10:01:43;;;;;;;;;;;12.10;85.40;;;;;;5037269;28;19936;-71
2023/04/19 10:04:10;;;;;;;;;;;12.10;85.10;;;;;;5042329;28;20095;-71
2023/04/19 10:06:37;;;;;;;;;;;12.10;85.00;;;;;;5039689;28;20407;-69
2023/04/19 10:09:05;;;;;;;;;;;12.20;84.80;;;;;;5049322;28;19958;-71
2023/04/19 10:11:35;;;;;;;;;;;12.20;84.70;;;;;;5034218;28;19936;-70
2023/04/19 10:14:04;;;;;;;;;;;12.20;84.70;;;;;;5048936;28;19929;-71
2023/04/19 10:16:32;;;;;;;;;;;12.30;84.70;;;;;;5042670;28;19932;-70
2023/04/19 10:18:58;;;;;;;;;;;12.30;84.70;;;;;;5047944;28;19930;-69
2023/04/19 10:21:26;;;;;;;;;;;12.30;84.50;;;;;;5046928;28;20004;-71
2023/04/19 10:23:53;;;;;;;;;;;12.30;84.50;;;;;;5046020;28;20399;-70
2023/04/19 10:26:21;;;;;;;;;;;12.30;84.40;;;;;;5044984;28;19932;-70
2023/04/19 10:28:47;;;;;;;;;;;12.30;84.40;;;;;;5043653;28;20473;-70
2023/04/19 10:31:14;;;;;;;;;;;12.40;84.40;;;;;;5042926;28;20315;-70
2023/04/19 10:33:42;;;;;;;;;;;12.40;84.20;;;;;;5041537;28;20383;-70
2023/04/19 10:36:09;;;;;;;;;;;12.40;84.10;;;;;;5039187;28;19935;-70
2023/04/19 10:38:37;;;;;;;;;;;12.40;84.20;;;;;;5045593;28;20456;-70
2023/04/19 10:41:10;;;;;;;;;;;12.40;84.20;;;;;;5046893;28;19940;-70
2023/04/19 10:43:37;;;;;;;;;;;12.40;84.20;;;;;;5042539;28;20007;-68
2023/04/19 10:46:06;;;;;;;;;;;12.40;84.20;;;;;;5044523;28;19929;-70
2023/04/19 10:48:37;;;;;;;;;;;12.40;84.20;;;;;;5044321;28;19929;-71
2023/04/19 10:51:13;;;;;;;;;;;12.50;84.30;;;;;;5045205;28;19928;-70
2023/04/19 10:53:46;;;;;;;;;;;12.50;84.30;;;;;;5038173;28;20007;-69
2023/04/19 10:56:13;;;;;;;;;;;12.50;84.30;;;;;;5055187;28;20277;-71
2023/04/19 10:58:58;;;;;;;;;;;12.50;84.30;;;;;;5039247;28;19929;-70
2023/04/19 11:01:36;;;;;;;;;;;12.50;84.40;;;;;;5052491;28;19928;-71
2023/04/19 11:04:03;;;;;;;;;;;12.50;84.30;;;;;;5053022;28;19928;-70
2023/04/19 11:06:31;;;;;;;;;;;12.50;84.30;;;;;;5042243;28;19935;-71
2023/04/19 11:08:58;;;;;;;;;;;12.50;84.40;;;;;;5042568;28;19933;-70
2023/04/19 11:11:25;;;;;;;;;;;12.50;84.40;;;;;;5051064;28;19929;-70
2023/04/19 11:13:53;;;;;;;;;;;12.50;84.50;;;;;;5040883;28;20678;-76
2023/04/19 11:16:19;;;;;;;;;;;12.50;84.50;;;;;;5036951;28;20734;-76
2023/04/19 11:18:46;;;;;;;;;;;12.50;84.60;;;;;;5043027;28;20434;-76
2023/04/19 11:21:13;;;;;;;;;;;12.50;84.50;;;;;;5040284;28;19925;-77
2023/04/19 11:23:41;;;;;;;;;;;12.50;84.60;;;;;;5037875;28;19992;-76
2023/04/19 11:26:10;;;;;;;;;;;12.50;84.60;;;;;;5042843;28;19933;-76
2023/04/19 11:28:37;;;;;;;;;;;12.50;84.60;;;;;;5039779;28;20027;-76
2023/04/19 11:31:04;;;;;;;;;;;12.50;84.60;;;;;;5042192;28;19932;-76
2023/04/19 11:33:33;;;;;;;;;;;12.50;84.60;;;;;;5040821;28;19933;-77
2023/04/19 11:35:59;;;;;;;;;;;12.50;84.70;;;;;;5037866;28;20092;-76
2023/04/19 11:38:27;;;;;;;;;;;12.50;84.60;;;;;;5036565;28;19932;-76
2023/04/19 11:40:59;;;;;;;;;;;12.60;84.80;;;;;;5039110;28;19939;-76
2023/04/19 11:43:32;;;;;;;;;;;12.50;84.70;;;;;;5037384;28;19929;-76
2023/04/19 11:46:04;;;;;;;;;;;12.60;84.80;;;;;;5025115;28;19932;-76
2023/04/19 11:48:31;;;;;;;;;;;12.60;84.90;;;;;;5037166;28;19929;-77
2023/04/19 11:50:58;;;;;;;;;;;12.50;84.90;;;;;;5038454;28;20031;-76
2023/04/19 11:53:26;;;;;;;;;;;12.50;85.00;;;;;;5035578;28;19929;-77
2023/04/19 11:55:53;;;;;;;;;;;12.50;85.00;;;;;;5032998;28;20027;-77
2023/04/19 11:58:28;;;;;;;;;;;12.60;85.10;;;;;;5039489;28;20047;-78
2023/04/19 12:00:57;;;;;;;;;;;12.50;85.30;;;;;;5036295;28;20458;-76
2023/04/19 12:03:23;;;;;;;;;;;12.60;85.30;;;;;;5039120;28;19929;-76
2023/04/19 12:05:56;;;;;;;;;;;12.60;85.50;;;;;;5036375;28;19929;-76
2023/04/19 12:08:30;;;;;;;;;;;12.60;85.50;;;;;;5040251;28;19929;-77
2023/04/19 12:10:57;;;;;;;;;;;12.50;85.80;;;;;;5036761;28;20376;-78
2023/04/19 12:13:24;;;;;;;;;;;12.50;85.60;;;;;;5040053;28;20361;-78
2023/04/19 12:15:52;;;;;;;;;;;12.50;85.70;;;;;;5036888;28;19929;-77
2023/04/19 12:18:19;;;;;;;;;;;12.50;85.80;;;;;;5037080;28;19937;-77
2023/04/19 12:20:46;;;;;;;;;;;12.50;85.80;;;;;;5036628;28;20330;-78
2023/04/19 12:23:14;;;;;;;;;;;12.60;86.00;;;;;;5034269;28;19975;-77
2023/04/19 12:25:41;;;;;;;;;;;12.50;86.00;;;;;;5038729;28;20665;-76
2023/04/19 12:28:08;;;;;;;;;;;12.50;86.20;;;;;;5037675;28;20051;-77
2023/04/19 12:30:35;;;;;;;;;;;12.50;86.40;;;;;;5036893;28;19933;-78
2023/04/19 12:33:03;;;;;;;;;;;12.50;86.50;;;;;;5042030;28;19933;-77
2023/04/19 12:35:29;;;;;;;;;;;12.50;86.60;;;;;;5029378;28;20587;-78
2023/04/19 12:37:58;;;;;;;;;;;12.50;86.50;;;;;;5037198;28;19936;-76
2023/04/19 12:40:25;;;;;;;;;;;12.50;86.50;;;;;;5036899;28;19929;-76
2023/04/19 12:42:52;;;;;;;;;;;12.50;86.60;;;;;;5037482;28;19939;-77
2023/04/19 12:45:19;;;;;;;;;;;12.50;86.50;;;;;;5034412;28;20020;-77
2023/04/19 12:47:46;;;;;;;;;;;12.50;86.60;;;;;;5047880;28;19939;-82
2023/04/19 12:50:15;;;;;;;;;;;12.50;86.70;;;;;;5048600;28;20187;-78
2023/04/19 12:52:42;;;;;;;;;;;12.50;86.70;;;;;;5036942;28;19936;-73
2023/04/19 12:55:09;;;;;;;;;;;12.50;87.00;;;;;;5049417;28;19936;-73
2023/04/19 12:57:36;;;;;;;;;;;12.50;87.20;;;;;;5039609;28;19933;-72
2023/04/19 13:00:04;;;;;;;;;;;12.50;87.60;;;;;;5042021;28;19983;-73
2023/04/19 13:02:31;;;;;;;;;;;12.50;87.90;;;;;;5031377;28;20241;-73
2023/04/19 13:04:58;;;;;;;;;;;12.50;88.40;;;;;;5016339;28;20430;-73
2023/04/19 13:07:27;;;;;;;;;;;12.50;88.80;;;;;;5024115;28;19928;-73
2023/04/19 13:09:53;;;;;;;;;;;12.50;89.10;;;;;;5023875;28;19929;-73
2023/04/19 13:12:20;;;;;;;;;;;12.50;89.20;;;;;;5023689;28;19929;-73
2023/04/19 13:14:50;;;;;;;;;;;12.50;89.40;;;;;;5019578;28;19929;-74
2023/04/19 13:17:16;;;;;;;;;;;12.50;89.70;;;;;;5019103;28;20012;-71
2023/04/19 13:19:43;;;;;;;;;;;12.50;89.80;;;;;;5021536;28;19936;-73
2023/04/19 13:22:10;;;;;;;;;;;12.50;89.90;;;;;;5021105;28;19936;-71
2023/04/19 13:24:38;;;;;;;;;;;12.50;90.00;;;;;;5023019;28;19929;-71
2023/04/19 13:27:04;;;;;;;;;;;12.60;90.50;;;;;;5026454;28;19950;-71
2023/04/19 13:29:31;;;;;;;;;;;12.60;91.00;;;;;;5018232;28;19929;-70
2023/04/19 13:31:58;;;;;;;;;;;12.70;91.30;;;;;;5019268;28;19936;-71
2023/04/19 13:34:25;;;;;;;;;;;12.80;91.40;;;;;;5022103;28;20020;-75
2023/04/19 13:36:51;;;;;;;;;;;12.90;91.50;;;;;;5014343;28;19933;-77
2023/04/19 13:39:19;;;;;;;;;;;13.00;91.40;;;;;;5016326;28;21574;-76
2023/04/19 13:41:47;;;;;;;;;;;13.00;91.40;;;;;;5020546;28;20367;-76
2023/04/19 13:44:14;;;;;;;;;;;13.10;91.30;;;;;;5009281;28;19933;-75
2023/04/19 13:46:40;;;;;;;;;;;13.20;91.20;;;;;;5009260;28;19929;-76
2023/04/19 13:49:07;;;;;;;;;;;13.20;91.00;;;;;;5013526;28;19929;-75
2023/04/19 13:51:34;;;;;;;;;;;13.30;90.90;;;;;;5014754;28;19933;-75
2023/04/19 13:54:00;;;;;;;;;;;13.40;90.70;;;;;;5009120;28;20032;-75
2023/04/19 13:56:27;;;;;;;;;;;13.40;90.60;;;;;;5011678;28;20295;-76
2023/04/19 13:58:55;;;;;;;;;;;13.50;90.40;;;;;;5011848;28;20757;-75
2023/04/19 14:01:21;;;;;;;;;;;13.60;90.30;;;;;;5012978;28;19932;-75
2023/04/19 14:03:48;;;;;;;;;;;13.70;90.00;;;;;;5008956;28;19929;-75
2023/04/19 14:06:15;;;;;;;;;;;13.70;89.60;;;;;;5017689;28;19964;-75
2023/04/19 14:08:42;;;;;;;;;;;13.90;89.20;;;;;;5013935;28;19976;-75
2023/04/19 14:11:08;;;;;;;;;;;14.00;88.60;;;;;;5016289;28;19929;-75
2023/04/19 14:13:35;;;;;;;;;;;14.00;88.00;;;;;;5003852;28;20001;-73
2023/04/19 14:16:03;;;;;;;;;;;14.10;87.70;;;;;;5018887;28;19929;-76